Taiko Maru — JL6417 — position and weather

sailwx.info

Track history (hours):
 
Tides and Currents Weather Stations Pressure Air Temp Water Temp Dewpoint Dewpoint Depression Visibility Wind Speed Wind Dir Waves Ship Positions

Taiko Maru

Last reported at 2018-Jul-15 12:35 UTC. Time now 2018-Jul-19 01:24 UTC.
Position N 34°57' E 139°43'.

Length 73 m; draft 5 m.

Type: Tanker. MMSI: 431500395.

Date/timePositionNaut miles runAvg speedWind from/ knotsBaromVisibWave heightAir tempDewpointWater temp
2018-Jul-15 12:35N 34°57' E 139°43'311.0
2018-Jul-15 12:20N 34°60' E 139°43'310.3
2018-Jul-15 12:01N 35°03' E 139°44'5 9.2
2018-Jul-15 11:30N 35°07' E 139°45'5 9.4
2018-Jul-15 11:01N 35°12' E 139°46'5 9.5
2018-Jul-15 10:30N 35°17' E 139°45'5 9.6
2018-Jul-15 10:00N 35°21' E 139°43'5 9.2
2018-Jul-15 09:29N 35°25' E 139°45'5 9.3
2018-Jul-15 08:59N 35°28' E 139°49'4 8.9
2018-Jul-15 08:30N 35°30' E 139°54'6 1.8
2018-Jul-15 05:29N 35°29' E 140°00'2 3.3
2018-Jul-15 04:57N 35°30' E 139°58'0 0.0
2018-Jul-15 04:30N 35°30' E 139°58'0 0.1
2018-Jul-15 04:00N 35°30' E 139°58'2 0.3
2018-Jul-14 21:13N 35°30' E 139°56'2 9.6
2018-Jul-14 21:00N 35°29' E 139°53'611.1
2018-Jul-14 20:30N 35°26' E 139°48'611.1
2018-Jul-14 20:00N 35°21' E 139°45'610.6
2018-Jul-14 19:29N 35°15' E 139°47'511.4
2018-Jul-14 19:00N 35°10' E 139°47'611.3
2018-Jul-14 18:30N 35°05' E 139°45'611.0
2018-Jul-14 18:00N 34°59' E 139°43'  
2018-Jul-10 14:04N 34°58' E 139°43'110.5
2018-Jul-10 13:58N 34°59' E 139°43'510.7
2018-Jul-10 13:30N 35°04' E 139°44'510.4
2018-Jul-10 13:00N 35°09' E 139°45'510.0
2018-Jul-10 12:30N 35°14' E 139°46'5 9.9
2018-Jul-10 12:00N 35°18' E 139°44'5 9.6
2018-Jul-10 11:30N 35°23' E 139°42'5 9.6
2018-Jul-10 11:00N 35°27' E 139°46'5 9.8
2018-Jul-10 10:30N 35°30' E 139°51'8 9.8
2018-Jul-10 09:43N 35°33' E 139°60'10 0.8
2018-Jul-09 21:10N 35°27' E 139°50'211.0
2018-Jul-09 21:00N 35°26' E 139°49'510.6
2018-Jul-09 20:30N 35°21' E 139°45'5 9.3
2018-Jul-09 20:01N 35°17' E 139°46'5 9.9
2018-Jul-09 19:30N 35°12' E 139°47'510.6
2018-Jul-09 19:00N 35°07' E 139°46'511.0
2018-Jul-09 18:30N 35°01' E 139°44'  
Track history (hours):
 
Tides and Currents Weather Stations Pressure Air Temp Water Temp Dewpoint Dewpoint Depression Visibility Wind Speed Wind Dir Waves Ship Positions

Taiko Maru

Last reported at 2018-Jul-15 12:35 UTC. Time now 2018-Jul-19 01:24 UTC.
Position N 34°57' E 139°43'.

Length 73 m; draft 5 m.

Type: Tanker. MMSI: 431500395.

Date/timePositionNaut miles runAvg speedWind from/ knotsBaromVisibWave heightAir tempDewpointWater temp
2018-Jul-15 12:35N 34°57' E 139°43'311.0
2018-Jul-15 12:20N 34°60' E 139°43'310.3
2018-Jul-15 12:01N 35°03' E 139°44'5 9.2
2018-Jul-15 11:30N 35°07' E 139°45'5 9.4
2018-Jul-15 11:01N 35°12' E 139°46'5 9.5
2018-Jul-15 10:30N 35°17' E 139°45'5 9.6
2018-Jul-15 10:00N 35°21' E 139°43'5 9.2
2018-Jul-15 09:29N 35°25' E 139°45'5 9.3
2018-Jul-15 08:59N 35°28' E 139°49'4 8.9
2018-Jul-15 08:30N 35°30' E 139°54'6 1.8
2018-Jul-15 05:29N 35°29' E 140°00'2 3.3
2018-Jul-15 04:57N 35°30' E 139°58'0 0.0
2018-Jul-15 04:30N 35°30' E 139°58'0 0.1
2018-Jul-15 04:00N 35°30' E 139°58'2 0.3
2018-Jul-14 21:13N 35°30' E 139°56'2 9.6
2018-Jul-14 21:00N 35°29' E 139°53'611.1
2018-Jul-14 20:30N 35°26' E 139°48'611.1
2018-Jul-14 20:00N 35°21' E 139°45'610.6
2018-Jul-14 19:29N 35°15' E 139°47'511.4
2018-Jul-14 19:00N 35°10' E 139°47'611.3
2018-Jul-14 18:30N 35°05' E 139°45'611.0
2018-Jul-14 18:00N 34°59' E 139°43'  
2018-Jul-10 14:04N 34°58' E 139°43'110.5
2018-Jul-10 13:58N 34°59' E 139°43'510.7
2018-Jul-10 13:30N 35°04' E 139°44'510.4
2018-Jul-10 13:00N 35°09' E 139°45'510.0
2018-Jul-10 12:30N 35°14' E 139°46'5 9.9
2018-Jul-10 12:00N 35°18' E 139°44'5 9.6
2018-Jul-10 11:30N 35°23' E 139°42'5 9.6
2018-Jul-10 11:00N 35°27' E 139°46'5 9.8
2018-Jul-10 10:30N 35°30' E 139°51'8 9.8
2018-Jul-10 09:43N 35°33' E 139°60'10 0.8
2018-Jul-09 21:10N 35°27' E 139°50'211.0
2018-Jul-09 21:00N 35°26' E 139°49'510.6
2018-Jul-09 20:30N 35°21' E 139°45'5 9.3
2018-Jul-09 20:01N 35°17' E 139°46'5 9.9
2018-Jul-09 19:30N 35°12' E 139°47'510.6
2018-Jul-09 19:00N 35°07' E 139°46'511.0
2018-Jul-09 18:30N 35°01' E 139°44'  

Dump ship's entire track history